Time;durP1;ratioP1;P1;durP2;ratioP2;P2;SDS_P1;SDS_P2;PMS_P1;PMS_P2;Temp;Humidity;BMP_temperature;BMP_pressure;BME280_temperature;BME280_humidity;BME280_pressure;Samples;Min_cycle;Max_cycle;Signal;HPM_P1;HPM_P2
2022/12/02 00:01:15;;;;;;;218.63;51.35;;;;;;;1.73;100.00;102616.50;5014172;28;20026;-77
2022/12/02 00:03:41;;;;;;;205.37;50.10;;;;;;;1.66;100.00;102626.53;5013982;28;20025;-77
2022/12/02 00:06:27;;;;;;;213.30;51.40;;;;;;;1.65;100.00;102619.47;5014251;28;20109;-77
2022/12/02 00:08:55;;;;;;;207.13;46.97;;;;;;;1.60;100.00;102614.28;5014555;28;20025;-78
2022/12/02 00:11:29;;;;;;;224.17;52.67;;;;;;;1.43;100.00;102614.03;5013665;28;20059;-76
2022/12/02 00:13:58;;;;;;;228.93;52.30;;;;;;;1.57;100.00;102605.53;5021317;28;20021;-77
2022/12/02 00:16:25;;;;;;;220.77;51.40;;;;;;;1.54;100.00;102603.84;5051265;28;20096;-77
2022/12/02 00:18:51;;;;;;;201.47;50.70;;;;;;;1.52;100.00;102607.50;5034489;28;20484;-77
2022/12/02 00:21:18;;;;;;;197.75;51.38;;;;;;;1.69;100.00;102599.69;5033940;28;20060;-77
2022/12/02 00:23:44;;;;;;;218.82;51.50;;;;;;;1.64;100.00;102607.03;5033698;28;20028;-77
2022/12/02 00:26:10;;;;;;;201.07;50.47;;;;;;;1.53;100.00;102599.44;5034070;28;20017;-78
2022/12/02 00:28:35;;;;;;;228.03;52.03;;;;;;;1.63;100.00;102597.31;5052111;28;20029;-76
2022/12/02 00:31:00;;;;;;;195.30;49.30;;;;;;;1.62;100.00;102603.53;5030874;28;20033;-77
2022/12/02 00:33:26;;;;;;;159.40;44.37;;;;;;;1.31;100.00;102594.03;5014435;28;20025;-76
2022/12/02 00:35:51;;;;;;;169.93;46.80;;;;;;;1.49;100.00;102591.59;5031640;28;20032;-76
2022/12/02 00:38:17;;;;;;;157.33;41.90;;;;;;;1.54;100.00;102600.28;5014286;28;20032;-76
2022/12/02 00:40:43;;;;;;;156.23;42.63;;;;;;;1.75;100.00;102593.25;5031613;28;20025;-77
2022/12/02 00:48:36;;;;;;;163.07;43.17;;;;;;;1.95;100.00;102589.81;5051149;28;20013;-76
2022/12/02 00:51:03;;;;;;;163.50;45.60;;;;;;;1.85;100.00;102587.53;5033564;28;20024;-76
2022/12/02 00:53:28;;;;;;;158.53;42.33;;;;;;;1.74;100.00;102581.72;5033414;28;20067;-76
2022/12/02 00:55:53;;;;;;;156.07;43.70;;;;;;;1.87;100.00;102596.34;5050896;28;20029;-76
2022/12/02 00:58:19;;;;;;;162.40;45.70;;;;;;;1.83;100.00;102592.06;5033518;28;20029;-76
2022/12/02 01:00:44;;;;;;;139.93;39.93;;;;;;;1.89;100.00;102583.81;5033005;28;20508;-76
2022/12/02 01:03:10;;;;;;;141.35;40.53;;;;;;;2.00;100.00;102582.50;5051834;28;20477;-76
2022/12/02 01:05:35;;;;;;;148.18;41.70;;;;;;;1.99;100.00;102575.41;5032811;28;20047;-76
2022/12/02 01:08:00;;;;;;;140.50;44.85;;;;;;;1.80;100.00;102581.47;5050603;28;20025;-76
2022/12/02 01:10:26;;;;;;;148.75;42.92;;;;;;;1.65;100.00;102582.09;5050215;28;20017;-76
2022/12/02 01:12:52;;;;;;;150.32;43.75;;;;;;;1.79;100.00;102579.75;5052329;28;20104;-76
2022/12/02 01:15:17;;;;;;;149.68;44.30;;;;;;;1.83;100.00;102578.72;5036372;28;20024;-77
2022/12/02 01:17:42;;;;;;;146.35;43.83;;;;;;;1.97;100.00;102577.28;5036809;28;20052;-76
2022/12/02 01:20:08;;;;;;;153.43;44.30;;;;;;;1.98;100.00;102579.03;5054927;28;20029;-77
2022/12/02 01:22:34;;;;;;;151.38;44.17;;;;;;;1.76;100.00;102579.88;5036794;28;20025;-77
2022/12/02 01:24:59;;;;;;;149.57;46.60;;;;;;;1.77;100.00;102576.28;5036595;28;20024;-76
2022/12/02 01:27:25;;;;;;;145.53;46.13;;;;;;;1.93;100.00;102586.34;5037151;28;20112;-76
2022/12/02 01:29:50;;;;;;;155.73;48.77;;;;;;;1.81;100.00;102575.19;5033130;28;20067;-77
2022/12/02 01:32:18;;;;;;;161.63;49.33;;;;;;;1.69;100.00;102581.00;5016452;28;20026;-76
2022/12/02 01:34:43;;;;;;;175.57;50.97;;;;;;;1.47;100.00;102582.78;5016401;28;20025;-77
2022/12/02 01:37:08;;;;;;;144.57;47.87;;;;;;;1.55;100.00;102576.22;5023085;28;20024;-77
2022/12/02 01:39:34;;;;;;;177.57;52.57;;;;;;;1.45;100.00;102574.84;5036721;28;20494;-76
2022/12/02 01:41:59;;;;;;;188.40;55.40;;;;;;;1.64;100.00;102572.34;5024884;28;20029;-77
2022/12/02 01:44:25;;;;;;;190.20;54.03;;;;;;;1.75;100.00;102577.25;5028427;28;20482;-76
2022/12/02 01:46:51;;;;;;;179.90;52.33;;;;;;;1.78;100.00;102572.66;5036436;28;20040;-77
2022/12/02 01:49:17;;;;;;;186.15;54.47;;;;;;;1.92;100.00;102563.25;5036311;28;20028;-76
2022/12/02 01:51:43;;;;;;;160.25;51.08;;;;;;;1.88;100.00;102568.69;5036012;28;20024;-77
2022/12/02 01:54:08;;;;;;;174.93;55.58;;;;;;;1.92;100.00;102568.59;5035931;28;20116;-77
2022/12/02 01:56:34;;;;;;;180.40;54.60;;;;;;;1.69;100.00;102578.34;5036072;28;20021;-76
2022/12/02 01:58:59;;;;;;;189.35;55.53;;;;;;;1.77;100.00;102570.94;5036128;28;20032;-76
2022/12/02 02:01:32;;;;;;;181.87;54.77;;;;;;;1.72;100.00;102572.91;5035701;28;20025;-76
2022/12/02 02:03:58;;;;;;;183.15;56.15;;;;;;;1.57;100.00;102562.81;5053508;28;20075;-73
2022/12/02 02:06:26;;;;;;;173.32;54.53;;;;;;;1.52;100.00;102570.13;5035536;28;20017;-73
2022/12/02 02:08:52;;;;;;;185.65;55.75;;;;;;;1.71;100.00;102571.16;5035834;28;20089;-72
2022/12/02 02:11:18;;;;;;;171.23;54.00;;;;;;;1.70;100.00;102564.09;5035965;28;20025;-73
2022/12/02 02:13:44;;;;;;;192.40;55.25;;;;;;;1.52;100.00;102570.13;5041313;28;20477;-73
2022/12/02 02:16:12;;;;;;;185.13;57.23;;;;;;;1.81;100.00;102560.97;5052888;28;20028;-72
2022/12/02 02:18:37;;;;;;;176.82;55.05;;;;;;;1.73;100.00;102558.63;5035773;28;20021;-73
2022/12/02 02:21:04;;;;;;;198.80;59.87;;;;;;;1.69;100.00;102561.47;5035873;28;20021;-72
2022/12/02 02:23:29;;;;;;;178.10;55.88;;;;;;;1.73;100.00;102558.63;5035894;28;20083;-73
2022/12/02 02:25:58;;;;;;;185.25;57.65;;;;;;;1.67;100.00;102558.84;5035585;28;20025;-73
2022/12/02 02:28:25;;;;;;;184.93;57.92;;;;;;;1.63;100.00;102562.59;5052708;28;20071;-73
2022/12/02 02:30:53;;;;;;;174.73;55.07;;;;;;;1.87;100.00;102556.25;5018418;28;20478;-73
2022/12/02 02:33:19;;;;;;;163.35;55.00;;;;;;;1.76;100.00;102558.50;5052741;28;20060;-73
2022/12/02 02:35:45;;;;;;;163.15;54.97;;;;;;;1.80;100.00;102546.75;5035810;28;20470;-73
2022/12/02 02:38:15;;;;;;;168.65;56.50;;;;;;;1.85;100.00;102555.47;5053038;28;20051;-73
2022/12/02 02:40:42;;;;;;;174.60;57.25;;;;;;;1.82;100.00;102552.91;5053104;28;20025;-73
2022/12/02 02:43:08;;;;;;;157.52;53.85;;;;;;;1.72;100.00;102551.53;5053283;28;20025;-73
2022/12/02 02:45:36;;;;;;;162.10;55.28;;;;;;;1.68;100.00;102552.56;5051636;28;20029;-74
2022/12/02 02:48:06;;;;;;;166.10;54.40;;;;;;;1.63;100.00;102551.91;5034893;28;20029;-73
2022/12/02 02:50:33;;;;;;;167.88;55.42;;;;;;;1.63;100.00;102557.25;5034703;28;20025;-73
2022/12/02 02:53:00;;;;;;;149.23;54.65;;;;;;;1.72;100.00;102540.84;5052659;28;20074;-73
2022/12/02 02:55:26;;;;;;;154.57;55.80;;;;;;;1.71;100.00;102549.81;5034155;28;20025;-73
2022/12/02 02:57:52;;;;;;;141.90;51.13;;;;;;;1.62;100.00;102544.81;5052215;28;20263;-73
2022/12/02 03:00:20;;;;;;;143.57;50.85;;;;;;;1.81;100.00;102543.16;5034598;28;20493;-73
2022/12/02 03:02:48;;;;;;;142.95;50.05;;;;;;;1.72;100.00;102546.19;5034444;28;20107;-73
2022/12/02 03:05:14;;;;;;;157.32;55.15;;;;;;;1.74;100.00;102544.34;5034530;28;20017;-73
2022/12/02 03:07:40;;;;;;;151.25;54.72;;;;;;;1.64;100.00;102548.31;5017995;28;20025;-73
2022/12/02 03:10:06;;;;;;;144.43;53.23;;;;;;;1.73;100.00;102541.72;5034506;28;20489;-73
2022/12/02 03:12:32;;;;;;;152.18;53.38;;;;;;;1.66;100.00;102541.09;5034321;28;20028;-73
2022/12/02 03:14:59;;;;;;;160.48;54.83;;;;;;;1.60;100.00;102546.66;5033720;28;20082;-73
2022/12/02 03:17:25;;;;;;;156.63;55.85;;;;;;;1.38;100.00;102540.44;5033838;28;20041;-73
2022/12/02 03:19:50;;;;;;;162.82;55.83;;;;;;;1.52;100.00;102540.78;5052190;28;20029;-73
2022/12/02 03:22:15;;;;;;;153.73;53.60;;;;;;;1.45;100.00;102541.94;5034169;28;20036;-73
2022/12/02 03:24:41;;;;;;;158.48;54.47;;;;;;;1.48;100.00;102541.81;5033784;28;20025;-73
2022/12/02 03:27:08;;;;;;;159.03;53.90;;;;;;;1.46;100.00;102535.66;5033982;28;20025;-74
2022/12/02 03:29:33;;;;;;;145.47;52.97;;;;;;;1.46;100.00;102539.19;5034353;28;20120;-74
2022/12/02 03:31:59;;;;;;;174.47;58.77;;;;;;;1.58;100.00;102538.72;5034243;28;20044;-74
2022/12/02 03:34:26;;;;;;;170.03;58.03;;;;;;;1.67;100.00;102541.97;5033514;28;20028;-74
2022/12/02 03:36:51;;;;;;;185.52;62.28;;;;;;;1.58;100.00;102532.53;5032753;28;20053;-73
2022/12/02 03:39:17;;;;;;;176.53;55.40;;;;;;;1.58;100.00;102543.22;5033935;28;20025;-74
2022/12/02 03:41:44;;;;;;;172.43;57.97;;;;;;;1.57;100.00;102530.78;5051600;28;20021;-73
2022/12/02 03:44:10;;;;;;;180.13;57.60;;;;;;;1.42;100.00;102531.38;5034252;28;20024;-75
2022/12/02 03:46:36;;;;;;;189.23;57.97;;;;;;;1.44;100.00;102540.19;5034415;28;20025;-73
2022/12/02 03:49:02;;;;;;;179.73;57.55;;;;;;;1.28;100.00;102534.56;5051960;28;20112;-73
2022/12/02 03:51:28;;;;;;;207.00;63.37;;;;;;;1.31;100.00;102540.66;5034669;28;20028;-74
2022/12/02 03:53:54;;;;;;;179.57;60.57;;;;;;;1.41;100.00;102535.84;5033955;28;20024;-75
2022/12/02 03:56:20;;;;;;;205.57;63.47;;;;;;;1.29;100.00;102537.16;5033848;28;20020;-75
2022/12/02 03:58:48;;;;;;;179.63;60.50;;;;;;;1.38;100.00;102529.75;5051444;28;20025;-75
2022/12/02 04:01:15;;;;;;;202.87;62.53;;;;;;;1.40;100.00;102527.88;5032890;28;20025;-75
2022/12/02 04:03:41;;;;;;;208.13;62.00;;;;;;;1.39;100.00;102531.50;5050939;28;20025;-76
2022/12/02 04:06:06;;;;;;;191.17;59.37;;;;;;;1.59;100.00;102534.25;5033608;28;20050;-74
2022/12/02 04:08:32;;;;;;;196.27;60.63;;;;;;;1.54;100.00;102528.22;5033573;28;20033;-73
2022/12/02 04:10:57;;;;;;;214.05;63.70;;;;;;;1.54;100.00;102530.91;5034213;28;20017;-74
2022/12/02 04:13:23;;;;;;;194.85;59.97;;;;;;;1.49;100.00;102527.53;5050921;28;20048;-74
2022/12/02 04:15:49;;;;;;;175.10;57.88;;;;;;;1.48;100.00;102525.78;5033146;28;20405;-74
2022/12/02 04:18:14;;;;;;;194.18;60.58;;;;;;;1.47;100.00;102524.06;5032962;28;20045;-74
2022/12/02 04:20:39;;;;;;;238.27;68.20;;;;;;;1.51;100.00;102525.69;5032989;28;20193;-74
2022/12/02 04:23:05;;;;;;;199.32;60.55;;;;;;;1.39;100.00;102531.50;5050794;28;20043;-73
2022/12/02 04:25:30;;;;;;;200.25;59.00;;;;;;;1.52;100.00;102522.09;5050796;28;20139;-73
2022/12/02 04:27:55;;;;;;;213.85;66.00;;;;;;;1.56;100.00;102526.34;5033005;28;20052;-72
2022/12/02 04:30:21;;;;;;;179.95;57.78;;;;;;;1.40;100.00;102523.41;5032895;28;20114;-73
2022/12/02 04:32:46;;;;;;;221.68;65.40;;;;;;;1.31;100.00;102516.66;5033098;28;20078;-74
2022/12/02 04:35:11;;;;;;;198.45;57.67;;;;;;;1.32;100.00;102531.72;5050309;28;20029;-74
2022/12/02 04:37:37;;;;;;;199.10;57.03;;;;;;;1.43;100.00;102527.75;5032938;28;20025;-74
2022/12/02 04:40:03;;;;;;;210.77;62.63;;;;;;;1.52;100.00;102527.41;5032645;28;20039;-73
2022/12/02 04:42:28;;;;;;;228.23;67.43;;;;;;;1.38;100.00;102527.09;5032348;28;20021;-71
2022/12/02 04:44:54;;;;;;;243.30;66.57;;;;;;;1.33;100.00;102517.44;5032659;28;20044;-73
2022/12/02 04:47:19;;;;;;;244.30;68.47;;;;;;;1.42;100.00;102526.03;5031615;28;20032;-72
2022/12/02 04:49:44;;;;;;;207.98;61.13;;;;;;;1.46;100.00;102527.66;5032594;28;20489;-72
2022/12/02 04:52:09;;;;;;;184.32;58.20;;;;;;;1.48;100.00;102526.66;5050067;28;20017;-73
2022/12/02 04:54:35;;;;;;;235.05;66.50;;;;;;;1.42;100.00;102518.00;5032677;28;20047;-73
2022/12/02 04:57:00;;;;;;;230.68;62.58;;;;;;;1.35;100.00;102520.06;5049780;28;20025;-73
2022/12/02 04:59:25;;;;;;;241.43;63.93;;;;;;;1.25;100.00;102519.53;5032694;28;20041;-73
2022/12/02 05:01:51;;;;;;;233.67;63.43;;;;;;;1.45;100.00;102515.25;5049826;28;20223;-74
2022/12/02 05:04:16;;;;;;;247.27;65.40;;;;;;;1.29;100.00;102521.16;5032594;28;20033;-72
2022/12/02 05:06:41;;;;;;;261.20;69.63;;;;;;;1.36;100.00;102517.31;5032179;28;20029;-74
2022/12/02 05:12:29;;;;;;;209.20;49.10;;;;;;;1.25;100.00;102524.88;5049472;28;20068;-73
2022/12/02 05:14:54;;;;;;;218.90;62.57;;;;;;;1.38;100.00;102519.09;5038858;28;20044;-73
2022/12/02 05:17:20;;;;;;;206.83;59.27;;;;;;;1.38;100.00;102521.75;5049626;28;20025;-73
2022/12/02 05:19:45;;;;;;;232.27;65.35;;;;;;;1.42;100.00;102524.22;5032725;28;20097;-74
2022/12/02 05:22:10;;;;;;;214.37;60.83;;;;;;;1.47;100.00;102518.72;5049448;28;20029;-73
2022/12/02 05:24:36;;;;;;;243.10;66.82;;;;;;;1.28;100.00;102518.53;5050261;28;20056;-73
2022/12/02 05:27:01;;;;;;;216.82;62.92;;;;;;;1.28;100.00;102524.75;5031601;28;20021;-73
2022/12/02 05:29:26;;;;;;;238.43;66.17;;;;;;;1.24;100.00;102523.16;5026767;28;20032;-73
2022/12/02 05:31:52;;;;;;;257.47;68.23;;;;;;;1.18;100.00;102528.72;5031998;28;20025;-73
2022/12/02 05:34:17;;;;;;;209.63;61.10;;;;;;;1.38;100.00;102527.09;5032414;28;20029;-73
2022/12/02 05:36:42;;;;;;;224.75;62.25;;;;;;;1.35;100.00;102530.72;5049508;28;20029;-73
2022/12/02 05:39:08;;;;;;;246.63;66.97;;;;;;;1.35;100.00;102526.25;5032120;28;20029;-73
2022/12/02 05:41:33;;;;;;;191.50;56.97;;;;;;;1.31;100.00;102524.66;5041230;28;20367;-73
2022/12/02 05:44:11;;;;;;;186.10;59.15;;;;;;;1.20;100.00;102529.50;5026920;28;20024;-73
2022/12/02 05:46:36;;;;;;;225.57;63.03;;;;;;;1.26;100.00;102521.28;5031570;28;20451;-73
2022/12/02 05:49:06;;;;;;;242.47;67.03;;;;;;;1.21;100.00;102528.56;5049726;28;20053;-72
2022/12/02 05:51:31;;;;;;;206.50;60.77;;;;;;;1.24;100.00;102523.16;5031487;28;20018;-72
2022/12/02 05:53:57;;;;;;;223.03;67.07;;;;;;;1.33;100.00;102528.13;5031796;28;20116;-73
2022/12/02 05:56:27;;;;;;;230.73;68.03;;;;;;;1.26;100.00;102523.94;5031782;28;20532;-73
2022/12/02 05:59:00;;;;;;;233.83;69.73;;;;;;;1.18;100.00;102523.38;5033069;28;20029;-73
2022/12/02 06:01:31;;;;;;;233.20;64.97;;;;;;;1.24;100.00;102528.47;5035648;28;20025;-73
2022/12/02 06:03:58;;;;;;;210.80;59.70;;;;;;;1.27;100.00;102528.34;5034881;28;20124;-73
2022/12/02 06:06:28;;;;;;;220.70;65.07;;;;;;;1.35;100.00;102536.94;5034607;28;20098;-73
2022/12/02 06:08:55;;;;;;;206.63;57.40;;;;;;;1.23;100.00;102526.72;5053177;28;20027;-73
2022/12/02 06:11:33;;;;;;;196.70;57.73;;;;;;;1.18;100.00;102542.03;5053370;28;20078;-73
2022/12/02 06:14:05;;;;;;;205.40;59.17;;;;;;;1.26;100.00;102542.63;5035218;28;20092;-73
2022/12/02 06:16:31;;;;;;;185.97;57.93;;;;;;;1.35;100.00;102536.94;5035199;28;20040;-73
2022/12/02 06:18:59;;;;;;;192.73;58.45;;;;;;;1.34;100.00;102537.88;5052638;28;20021;-73
2022/12/02 06:21:26;;;;;;;184.67;55.97;;;;;;;1.29;100.00;102537.16;5035266;28;20108;-73
2022/12/02 06:23:56;;;;;;;177.47;55.07;;;;;;;1.28;100.00;102540.75;5053001;28;20032;-73
2022/12/02 06:26:22;;;;;;;203.30;60.67;;;;;;;1.16;100.00;102535.88;5035216;28;20107;-73
2022/12/02 06:28:57;;;;;;;181.40;54.43;;;;;;;1.32;100.00;102525.53;5034741;28;20116;-73
2022/12/02 06:31:29;;;;;;;180.73;54.17;;;;;;;1.25;100.00;102540.88;5023861;28;20092;-73
2022/12/02 06:33:58;;;;;;;166.47;52.73;;;;;;;1.40;100.00;102538.56;5034702;28;20078;-74
2022/12/02 06:36:32;;;;;;;196.17;57.27;;;;;;;1.32;100.00;102537.06;5035073;28;20040;-73
2022/12/02 06:39:08;;;;;;;185.67;57.20;;;;;;;1.40;100.00;102531.44;5035095;28;20040;-74
2022/12/02 06:41:36;;;;;;;171.00;53.47;;;;;;;1.19;100.00;102532.25;5026245;28;20028;-73
2022/12/02 06:46:59;;;;;;;172.53;56.27;;;;;;;1.06;100.00;102535.34;5038399;28;20021;-73
2022/12/02 06:49:32;;;;;;;174.60;55.47;;;;;;;1.14;100.00;102537.75;5023243;28;20039;-73
2022/12/02 06:52:05;;;;;;;173.53;55.83;;;;;;;1.25;100.00;102546.22;5041530;28;20016;-73
2022/12/02 06:54:31;;;;;;;174.80;57.13;;;;;;;1.21;100.00;102547.25;5037376;28;20060;-74
2022/12/02 06:56:59;;;;;;;165.17;54.13;;;;;;;1.47;100.00;102548.06;5039489;28;20056;-72
2022/12/02 06:59:26;;;;;;;180.13;53.80;;;;;;;1.35;100.00;102547.59;5038546;28;20078;-75
2022/12/02 07:01:54;;;;;;;157.77;52.90;;;;;;;1.28;100.00;102548.75;5021031;28;20405;-72
2022/12/02 07:04:31;;;;;;;171.13;54.63;;;;;;;1.36;100.00;102549.34;5027174;28;20104;-72
2022/12/02 07:07:13;;;;;;;172.73;58.33;;;;;;;1.36;100.00;102554.69;5014053;28;20025;-75
2022/12/02 07:09:45;;;;;;;178.20;56.90;;;;;;;1.25;100.00;102545.34;5046271;28;20028;-71
2022/12/02 07:12:18;;;;;;;196.60;58.60;;;;;;;1.35;100.00;102558.28;5022581;28;20121;-71
2022/12/02 07:14:51;;;;;;;168.50;54.73;;;;;;;1.46;100.00;102554.34;5020860;28;20017;-71
2022/12/02 07:17:22;;;;;;;186.00;58.40;;;;;;;1.53;100.00;102555.84;5024273;28;20017;-74
2022/12/02 07:20:06;;;;;;;135.50;45.90;;;;;;;1.46;100.00;102549.00;5032670;28;20120;-72
2022/12/02 07:22:48;;;;;;;178.52;56.40;;;;;;;1.45;100.00;102563.28;5033420;28;20540;-72
2022/12/02 07:25:16;;;;;;;171.40;54.55;;;;;;;1.27;100.00;102556.84;5033368;28;20063;-72
2022/12/02 07:27:50;;;;;;;180.40;55.70;;;;;;;1.25;100.00;102562.25;5033811;28;20068;-72
2022/12/02 07:30:22;;;;;;;181.90;57.27;;;;;;;1.35;100.00;102558.28;5042146;28;20018;-72
2022/12/02 07:32:47;;;;;;;180.10;55.17;;;;;;;1.40;100.00;102554.56;5013908;28;20029;-71
2022/12/02 07:35:13;;;;;;;164.80;54.33;;;;;;;1.65;100.00;102560.72;5031401;28;20029;-71
2022/12/02 07:37:38;;;;;;;187.75;58.90;;;;;;;1.48;100.00;102563.16;5014013;28;20021;-71
2022/12/02 07:40:04;;;;;;;160.57;53.15;;;;;;;1.68;100.00;102565.94;5014468;28;20025;-71
2022/12/02 07:42:30;;;;;;;176.40;56.70;;;;;;;1.39;100.00;102560.84;5031550;28;20026;-71
2022/12/02 07:44:55;;;;;;;185.07;58.93;;;;;;;1.59;100.00;102560.97;5044976;28;20085;-71
2022/12/02 07:47:20;;;;;;;175.80;56.03;;;;;;;1.52;100.00;102556.78;5033174;28;20017;-71
2022/12/02 07:49:49;;;;;;;170.23;55.87;;;;;;;1.54;100.00;102557.59;5033504;28;20025;-72
2022/12/02 07:52:14;;;;;;;169.33;55.33;;;;;;;1.56;100.00;102555.72;5047130;28;20028;-72
2022/12/02 07:54:40;;;;;;;199.60;60.23;;;;;;;1.56;100.00;102561.06;5034677;28;20021;-71
2022/12/02 07:57:05;;;;;;;151.77;50.30;;;;;;;1.59;100.00;102567.16;5025618;28;20434;-71
2022/12/02 07:59:30;;;;;;;160.77;54.15;;;;;;;1.44;100.00;102566.88;5032333;28;20020;-71
2022/12/02 08:01:56;;;;;;;146.05;48.53;;;;;;;1.47;100.00;102564.09;5052673;28;20067;-72
2022/12/02 08:04:21;;;;;;;163.82;54.92;;;;;;;1.60;100.00;102562.69;5017232;28;20021;-72
2022/12/02 08:06:46;;;;;;;184.15;58.00;;;;;;;1.50;100.00;102550.59;5028294;28;20041;-73
2022/12/02 08:09:12;;;;;;;168.50;54.13;;;;;;;1.45;100.00;102557.94;5046163;28;20035;-71
2022/12/02 08:11:37;;;;;;;159.17;54.13;;;;;;;1.62;100.00;102555.47;5045431;28;20060;-71
2022/12/02 08:14:03;;;;;;;152.47;52.33;;;;;;;1.52;100.00;102560.31;5035135;28;20052;-72
2022/12/02 08:16:28;;;;;;;163.03;54.37;;;;;;;1.81;100.00;102560.97;5028305;28;20466;-72
2022/12/02 08:18:54;;;;;;;159.82;51.58;;;;;;;1.74;100.00;102557.69;5058068;28;20082;-72
2022/12/02 08:21:19;;;;;;;143.10;50.55;;;;;;;1.78;100.00;102555.78;5031186;28;20457;-71
2022/12/02 08:23:45;;;;;;;156.32;54.08;;;;;;;1.84;100.00;102556.41;5054447;28;20017;-72
2022/12/02 08:26:10;;;;;;;157.00;52.20;;;;;;;1.89;100.00;102554.44;5035228;28;20036;-72
2022/12/02 08:28:36;;;;;;;139.00;49.50;;;;;;;1.74;100.00;102549.66;5033610;28;20059;-72
2022/12/02 08:31:07;;;;;;;151.25;52.20;;;;;;;1.86;100.00;102559.88;5039041;28;20054;-73
2022/12/02 08:33:35;;;;;;;157.77;52.58;;;;;;;1.84;100.00;102559.06;5048328;28;20052;-73
2022/12/02 08:36:01;;;;;;;151.52;53.67;;;;;;;2.01;100.00;102568.19;5063939;28;20012;-73
2022/12/02 08:38:26;;;;;;;155.52;55.00;;;;;;;2.15;100.00;102565.84;5039242;28;20036;-72
2022/12/02 08:40:53;;;;;;;160.10;54.13;;;;;;;2.00;100.00;102578.03;5035894;28;20028;-71
2022/12/02 08:43:21;;;;;;;149.85;52.50;;;;;;;2.05;100.00;102569.81;5061690;28;20043;-71
2022/12/02 08:45:46;;;;;;;138.27;49.33;;;;;;;2.03;100.00;102577.03;5028933;28;20021;-73
2022/12/02 08:48:11;;;;;;;146.90;53.53;;;;;;;2.29;100.00;102574.19;5053319;28;20111;-72
2022/12/02 08:50:37;;;;;;;170.70;55.15;;;;;;;2.10;100.00;102581.22;5054433;28;20025;-72
2022/12/02 08:53:02;;;;;;;154.02;50.97;;;;;;;1.90;100.00;102574.84;5035992;28;20389;-73
2022/12/02 08:55:28;;;;;;;162.88;54.45;;;;;;;2.04;100.00;102574.31;5028833;28;20028;-72
2022/12/02 08:57:56;;;;;;;156.45;54.90;;;;;;;1.94;100.00;102577.38;5029666;28;20068;-74
2022/12/02 09:00:21;;;;;;;145.85;53.28;;;;;;;2.09;100.00;102577.66;5046529;28;20031;-73
2022/12/02 09:02:47;;;;;;;147.20;54.75;;;;;;;2.16;100.00;102578.28;5064382;28;20037;-73
2022/12/02 09:05:13;;;;;;;164.77;56.95;;;;;;;2.15;100.00;102579.19;5051973;28;20029;-73
2022/12/02 09:07:38;;;;;;;158.35;54.47;;;;;;;2.34;100.00;102576.66;5031409;28;20033;-73
2022/12/02 09:10:06;;;;;;;149.80;52.63;;;;;;;2.33;100.00;102586.47;5030265;28;20028;-74
2022/12/02 09:12:32;;;;;;;155.02;54.25;;;;;;;2.05;100.00;102581.38;5047076;28;20100;-74
2022/12/02 09:14:57;;;;;;;140.73;49.25;;;;;;;1.98;100.00;102584.38;5055741;28;20056;-73
2022/12/02 09:17:22;;;;;;;144.80;50.70;;;;;;;2.06;100.00;102592.94;5031638;28;20028;-73
2022/12/02 09:19:48;;;;;;;144.50;50.05;;;;;;;2.09;100.00;102592.84;5047235;28;20036;-73
2022/12/02 09:22:13;;;;;;;162.18;54.55;;;;;;;1.98;100.00;102597.72;5052747;28;20017;-74
2022/12/02 09:24:41;;;;;;;153.70;53.35;;;;;;;2.06;100.00;102592.94;5040671;28;20104;-74
2022/12/02 09:27:07;;;;;;;147.93;51.70;;;;;;;1.90;100.00;102593.56;5046342;28;20029;-73
2022/12/02 09:29:33;;;;;;;139.45;50.70;;;;;;;1.95;100.00;102587.16;5032903;28;20082;-73
2022/12/02 09:31:59;;;;;;;151.80;54.05;;;;;;;2.14;100.00;102581.00;5031381;28;20025;-73
2022/12/02 09:34:24;;;;;;;147.93;52.30;;;;;;;2.11;100.00;102590.97;5031144;28;20120;-73
2022/12/02 09:36:50;;;;;;;148.68;52.75;;;;;;;2.09;100.00;102583.00;5034076;28;20029;-74
2022/12/02 09:39:15;;;;;;;148.60;50.90;;;;;;;2.02;100.00;102596.66;5049771;28;20167;-74
2022/12/02 09:41:40;;;;;;;152.27;52.75;;;;;;;2.12;100.00;102598.03;5031202;28;20107;-73
2022/12/02 09:44:09;;;;;;;152.63;54.13;;;;;;;2.35;100.00;102600.66;5031494;28;20025;-73
2022/12/02 09:46:35;;;;;;;166.02;53.47;;;;;;;2.16;100.00;102597.00;5048441;28;20060;-73
2022/12/02 09:49:00;;;;;;;159.10;54.47;;;;;;;2.38;100.00;102600.53;5031369;28;20085;-74
2022/12/02 09:51:27;;;;;;;172.40;56.03;;;;;;;2.27;100.00;102608.09;5029366;28;20055;-73
2022/12/02 09:53:53;;;;;;;153.23;54.38;;;;;;;2.29;100.00;102600.91;5028062;28;20033;-74
2022/12/02 09:56:20;;;;;;;157.18;55.28;;;;;;;2.19;100.00;102599.53;5031647;28;20140;-74
2022/12/02 09:58:47;;;;;;;160.23;54.15;;;;;;;2.31;100.00;102601.72;5048690;28;20033;-73
2022/12/02 10:01:14;;;;;;;156.80;53.95;;;;;;;2.38;100.00;102595.19;5030567;28;20118;-74
2022/12/02 10:03:41;;;;;;;154.13;54.00;;;;;;;2.25;100.00;102604.63;5039537;28;20099;-74
2022/12/02 10:06:18;;;;;;;147.55;53.70;;;;;;;2.22;100.00;102599.41;5030200;28;20040;-73
2022/12/02 10:08:44;;;;;;;166.27;55.75;;;;;;;2.10;100.00;102599.91;5030539;28;20029;-74
2022/12/02 10:11:26;;;;;;;142.77;54.22;;;;;;;2.17;100.00;102593.38;5048705;28;20112;-73
2022/12/02 10:13:52;;;;;;;151.63;54.90;;;;;;;2.17;100.00;102601.41;5030994;28;20024;-74
2022/12/02 10:16:17;;;;;;;142.63;49.72;;;;;;;2.32;100.00;102606.13;5028906;28;20031;-74
2022/12/02 10:18:44;;;;;;;159.82;57.70;;;;;;;2.28;100.00;102599.19;5047334;28;20033;-74
2022/12/02 10:21:09;;;;;;;150.57;54.10;;;;;;;2.10;100.00;102586.56;5032175;28;20009;-73
2022/12/02 10:23:52;;;;;;;146.23;55.42;;;;;;;1.97;100.00;102599.53;5028941;28;20078;-73
2022/12/02 10:26:18;;;;;;;150.63;52.97;;;;;;;2.20;100.00;102595.91;5029673;28;20042;-73
2022/12/02 10:29:02;;;;;;;150.35;54.42;;;;;;;2.10;100.00;102595.44;5030501;28;20028;-74
2022/12/02 10:31:28;;;;;;;156.73;53.80;;;;;;;2.21;100.00;102586.97;5043916;28;20041;-73
2022/12/02 10:34:05;;;;;;;150.20;53.63;;;;;;;2.18;100.00;102587.09;5047936;28;20116;-73
2022/12/02 10:36:39;;;;;;;153.23;54.22;;;;;;;2.37;100.00;102587.22;5025158;28;20132;-73
2022/12/02 10:39:17;;;;;;;153.35;54.08;;;;;;;2.47;100.00;102588.56;5047437;28;20103;-73
2022/12/02 10:41:44;;;;;;;151.65;53.40;;;;;;;2.20;100.00;102585.22;5028233;28;20035;-73
2022/12/02 10:44:27;;;;;;;145.57;54.05;;;;;;;2.01;100.00;102584.22;5036694;28;20036;-74
2022/12/02 10:47:09;;;;;;;168.00;56.55;;;;;;;1.90;100.00;102582.88;5026635;28;20028;-74
2022/12/02 10:49:35;;;;;;;160.95;57.10;;;;;;;2.03;100.00;102582.38;5046565;28;20028;-73
2022/12/02 10:52:08;;;;;;;152.20;52.80;;;;;;;2.19;100.00;102583.50;5028953;28;20104;-72
2022/12/02 10:54:34;;;;;;;155.77;54.88;;;;;;;2.20;100.00;102579.88;5040875;28;20151;-72
2022/12/02 10:57:01;;;;;;;149.70;52.47;;;;;;;2.15;100.00;102579.19;5024865;28;20021;-72
2022/12/02 10:59:27;;;;;;;155.30;53.50;;;;;;;2.05;100.00;102569.81;5030444;28;20052;-72
2022/12/02 11:01:53;;;;;;;147.35;53.72;;;;;;;2.22;100.00;102578.03;5029485;28;20082;-71
2022/12/02 11:04:19;;;;;;;150.00;54.22;;;;;;;2.43;100.00;102577.16;5026609;28;20033;-73
2022/12/02 11:06:45;;;;;;;155.82;53.55;;;;;;;2.39;100.00;102575.53;5048551;28;20031;-71
2022/12/02 11:09:19;;;;;;;137.82;49.72;;;;;;;2.43;100.00;102571.81;5045831;28;20029;-72
2022/12/02 11:11:45;;;;;;;146.73;52.70;;;;;;;2.46;100.00;102576.13;5048556;28;20053;-73
2022/12/02 11:14:13;;;;;;;144.25;51.85;;;;;;;2.36;100.00;102570.31;5053736;28;20120;-75